SAAJ/JNI METAR and TAF weather

Enter ICAO airport designator
Station Type Date Time Source
SAAJ METAR 2019/06/11 02:30 UTC NOAA

SAAJ 110230Z 09003KT 3000 BR NSC 11/11 Q1016


Station Type Date Time Source
SAAJ Decoded METAR 2019/06/11 02:30 UTC NOAA

Junin Aerodrome, Argentina (SAAJ) 34-33S 060-55W 81M
Jun 10, 2019 - 10:30 PM EDT / 2019.06.11 0230 UTC
Wind: from the E (090 degrees) at 3 MPH (3 KT):0
Visibility: 1 mile(s):0
Weather: mist
Temperature: 51 F (11 C)
Dew Point: 51 F (11 C)
Relative Humidity: 100%
Pressure (altimeter): 30.00 in. Hg (1016 hPa)
ob: SAAJ 110230Z 09003KT 3000 BR NSC 11/11 Q1016
cycle: 2

Station Type Date Time Source
SAAJ TAF UTC NOAA

Error!

Example: see airport list